Aérodrome :
LOGIN :

S'inscrire | Disclaimer

   EN    FR    IT 

 










Légende :    VFR   VFR Marginal   IFR   IFR Intensif   IFR Très Intensif
Visi : 
Plafond : 
>= 8 km
>= 3000ft
5 à 8 km
1000 à 3000 ft
1500m à 5 km
500 à 1000 ft
800 à 1500m
200 à 500 ft
< 800m
< 200 ft
Symboles :   Orages  Brouillard  Fortes neiges  Fortes précipitations  Vent > 20 kt
SIGMETs :   Divers  Orages  Givrage  Turbulence  Onde Orograph.  Cendres Volcan.







- Altitude de l'aérodrome : 162 ft
- Code IATA : BOD
- Voir les cartes d'approche


LFBD - Bordeaux / Merignac

DERNIER METAR :
  • 220030Z AUTO 23003KT CAVOK 16/12 Q1015 NOSIG

METARs EXPIRÉS :
  • 220000Z AUTO 24004KT CAVOK 17/12 Q1015 NOSIG
  • 212330Z AUTO 24003KT CAVOK 17/12 Q1015 NOSIG
  • 212300Z AUTO 22001KT CAVOK 17/12 Q1015 NOSIG
  • 212230Z AUTO 23003KT CAVOK 18/12 Q1015 NOSIG
  • 212200Z AUTO VRB02KT CAVOK 18/12 Q1015 NOSIG

TAF TAF LFBD
Valide du 22 à 00h jusqu'au 23 à 06h UTC


212300Z 2200/2306 VRB03KT CAVOK
BECMG 2203/2206 16005KT
BECMG 2210/2212 24010KT
PROB30
TEMPO 2217/2301 4000 -TSRA BKN050CB
PROB30
TEMPO 2301/2306 BKN005 TX27/2214Z TN14/2306Z
ATIS : +33 5 57 92 81 04
Pas de NOTAMs connus pour ce terrain.



MET'MAP, la Météo Aéronautique d'un coup d'oeil ! - Copyright ORBIFLY Décembre 2007 - Disclaimer

ORBIFLY MET'MAP TEAM :

Programmation & Développement : Alexandra Zaïnal
Conception & Développement : Baudouin d'Aumeries
Co-Programmation & Développement : Marc-Olivier Méhu
Soutien technique & logistique : Manuel Goepfert

Contact : metmap@orbifly.com




SOURCES & CREDITS :

   NOAA